sensor_id;sensor_type;location;lat;lon;timestamp;temperature;humidity
40454;DHT22;26160;51.858;4.398;2024-02-21T00:01:15;10.20;99.90
40454;DHT22;26160;51.858;4.398;2024-02-21T00:03:42;10.30;99.90
40454;DHT22;26160;51.858;4.398;2024-02-21T00:06:08;10.20;99.90
40454;DHT22;26160;51.858;4.398;2024-02-21T00:08:34;10.20;99.90
40454;DHT22;26160;51.858;4.398;2024-02-21T00:11:00;10.20;99.90
40454;DHT22;26160;51.858;4.398;2024-02-21T00:13:26;10.20;99.90
40454;DHT22;26160;51.858;4.398;2024-02-21T00:15:52;10.20;99.90
40454;DHT22;26160;51.858;4.398;2024-02-21T00:18:18;10.20;99.90
40454;DHT22;26160;51.858;4.398;2024-02-21T00:20:44;10.20;99.90
40454;DHT22;26160;51.858;4.398;2024-02-21T00:23:11;10.20;99.90
40454;DHT22;26160;51.858;4.398;2024-02-21T00:25:37;10.20;99.90
40454;DHT22;26160;51.858;4.398;2024-02-21T00:28:06;10.20;99.90
40454;DHT22;26160;51.858;4.398;2024-02-21T00:30:32;10.30;99.90
40454;DHT22;26160;51.858;4.398;2024-02-21T00:32:59;10.30;99.90
40454;DHT22;26160;51.858;4.398;2024-02-21T00:35:27;10.30;99.90
40454;DHT22;26160;51.858;4.398;2024-02-21T00:37:53;10.30;99.90
40454;DHT22;26160;51.858;4.398;2024-02-21T00:40:19;10.30;99.90
40454;DHT22;26160;51.858;4.398;2024-02-21T00:42:47;10.30;99.90
40454;DHT22;26160;51.858;4.398;2024-02-21T00:45:13;10.30;99.90
40454;DHT22;26160;51.858;4.398;2024-02-21T00:47:40;10.30;99.90
40454;DHT22;26160;51.858;4.398;2024-02-21T00:50:06;10.30;99.90
40454;DHT22;26160;51.858;4.398;2024-02-21T00:52:33;10.30;99.90
40454;DHT22;26160;51.858;4.398;2024-02-21T00:54:59;10.30;99.90
40454;DHT22;26160;51.858;4.398;2024-02-21T00:57:26;10.30;99.90
40454;DHT22;26160;51.858;4.398;2024-02-21T00:59:52;10.30;99.90
40454;DHT22;26160;51.858;4.398;2024-02-21T01:02:18;10.30;99.90
40454;DHT22;26160;51.858;4.398;2024-02-21T01:04:44;10.30;99.90
40454;DHT22;26160;51.858;4.398;2024-02-21T01:07:10;10.20;99.90
40454;DHT22;26160;51.858;4.398;2024-02-21T01:09:36;10.30;99.90
40454;DHT22;26160;51.858;4.398;2024-02-21T01:12:03;10.20;99.90
40454;DHT22;26160;51.858;4.398;2024-02-21T01:14:29;10.20;99.90
40454;DHT22;26160;51.858;4.398;2024-02-21T01:16:55;10.20;99.90
40454;DHT22;26160;51.858;4.398;2024-02-21T01:19:21;10.20;99.90
40454;DHT22;26160;51.858;4.398;2024-02-21T01:21:47;10.20;99.90
40454;DHT22;26160;51.858;4.398;2024-02-21T01:24:13;10.20;99.90
40454;DHT22;26160;51.858;4.398;2024-02-21T01:26:40;10.20;99.90
40454;DHT22;26160;51.858;4.398;2024-02-21T01:29:07;10.20;99.90
40454;DHT22;26160;51.858;4.398;2024-02-21T01:31:33;10.20;99.90
40454;DHT22;26160;51.858;4.398;2024-02-21T01:33:59;10.20;99.90
40454;DHT22;26160;51.858;4.398;2024-02-21T01:36:25;10.20;99.90
40454;DHT22;26160;51.858;4.398;2024-02-21T01:38:51;10.20;99.90
40454;DHT22;26160;51.858;4.398;2024-02-21T01:41:17;10.20;99.90
40454;DHT22;26160;51.858;4.398;2024-02-21T01:43:43;10.20;99.90
40454;DHT22;26160;51.858;4.398;2024-02-21T01:46:09;10.20;99.90
40454;DHT22;26160;51.858;4.398;2024-02-21T01:48:35;10.20;99.90
40454;DHT22;26160;51.858;4.398;2024-02-21T01:51:03;10.20;99.90
40454;DHT22;26160;51.858;4.398;2024-02-21T01:53:35;10.20;99.90
40454;DHT22;26160;51.858;4.398;2024-02-21T01:56:03;10.20;99.90
40454;DHT22;26160;51.858;4.398;2024-02-21T01:58:31;10.20;99.90
40454;DHT22;26160;51.858;4.398;2024-02-21T02:03:34;10.20;99.90
40454;DHT22;26160;51.858;4.398;2024-02-21T02:06:00;10.20;99.90
40454;DHT22;26160;51.858;4.398;2024-02-21T02:08:27;10.20;99.90
40454;DHT22;26160;51.858;4.398;2024-02-21T02:10:54;10.20;99.90
40454;DHT22;26160;51.858;4.398;2024-02-21T02:13:20;10.10;99.90
40454;DHT22;26160;51.858;4.398;2024-02-21T02:15:47;10.10;99.90
40454;DHT22;26160;51.858;4.398;2024-02-21T02:18:15;10.10;99.90
40454;DHT22;26160;51.858;4.398;2024-02-21T02:20:41;10.10;99.90
40454;DHT22;26160;51.858;4.398;2024-02-21T02:25:43;10.10;99.90
40454;DHT22;26160;51.858;4.398;2024-02-21T02:28:13;10.10;99.90
40454;DHT22;26160;51.858;4.398;2024-02-21T02:30:39;10.10;99.90
40454;DHT22;26160;51.858;4.398;2024-02-21T02:33:05;10.10;99.90
40454;DHT22;26160;51.858;4.398;2024-02-21T02:35:32;10.10;99.90
40454;DHT22;26160;51.858;4.398;2024-02-21T02:37:58;10.10;99.90
40454;DHT22;26160;51.858;4.398;2024-02-21T02:40:25;10.10;99.90
40454;DHT22;26160;51.858;4.398;2024-02-21T02:42:53;10.10;99.90
40454;DHT22;26160;51.858;4.398;2024-02-21T02:45:22;10.10;99.90
40454;DHT22;26160;51.858;4.398;2024-02-21T02:47:52;10.10;99.90
40454;DHT22;26160;51.858;4.398;2024-02-21T02:50:20;10.10;99.90
40454;DHT22;26160;51.858;4.398;2024-02-21T02:52:49;10.10;99.90
40454;DHT22;26160;51.858;4.398;2024-02-21T02:55:16;10.00;99.90
40454;DHT22;26160;51.858;4.398;2024-02-21T02:57:42;10.10;99.90
40454;DHT22;26160;51.858;4.398;2024-02-21T03:00:11;10.10;99.90
40454;DHT22;26160;51.858;4.398;2024-02-21T03:02:42;10.00;99.90
40454;DHT22;26160;51.858;4.398;2024-02-21T03:05:20;10.00;99.90
40454;DHT22;26160;51.858;4.398;2024-02-21T03:07:47;10.00;99.90
40454;DHT22;26160;51.858;4.398;2024-02-21T03:10:14;10.00;99.90
40454;DHT22;26160;51.858;4.398;2024-02-21T03:12:42;10.00;99.90
40454;DHT22;26160;51.858;4.398;2024-02-21T03:15:08;10.00;99.90
40454;DHT22;26160;51.858;4.398;2024-02-21T03:17:35;10.00;99.90
40454;DHT22;26160;51.858;4.398;2024-02-21T03:20:05;10.00;99.90
40454;DHT22;26160;51.858;4.398;2024-02-21T03:22:31;9.90;99.90
40454;DHT22;26160;51.858;4.398;2024-02-21T03:25:00;9.90;99.90
40454;DHT22;26160;51.858;4.398;2024-02-21T03:27:27;9.90;99.90
40454;DHT22;26160;51.858;4.398;2024-02-21T03:29:53;9.90;99.90
40454;DHT22;26160;51.858;4.398;2024-02-21T03:32:19;10.00;99.90
40454;DHT22;26160;51.858;4.398;2024-02-21T03:34:45;10.00;99.90
40454;DHT22;26160;51.858;4.398;2024-02-21T03:37:12;10.00;99.90
40454;DHT22;26160;51.858;4.398;2024-02-21T03:39:40;9.90;99.90
40454;DHT22;26160;51.858;4.398;2024-02-21T03:42:06;9.90;99.90
40454;DHT22;26160;51.858;4.398;2024-02-21T03:44:32;9.90;99.90
40454;DHT22;26160;51.858;4.398;2024-02-21T03:47:00;9.90;99.90
40454;DHT22;26160;51.858;4.398;2024-02-21T03:49:26;9.90;99.90
40454;DHT22;26160;51.858;4.398;2024-02-21T03:51:52;9.90;99.90
40454;DHT22;26160;51.858;4.398;2024-02-21T03:54:19;9.90;99.90
40454;DHT22;26160;51.858;4.398;2024-02-21T03:56:45;9.90;99.90
40454;DHT22;26160;51.858;4.398;2024-02-21T03:59:13;9.90;99.90
40454;DHT22;26160;51.858;4.398;2024-02-21T04:01:40;9.90;99.90
40454;DHT22;26160;51.858;4.398;2024-02-21T04:04:06;9.90;99.90
40454;DHT22;26160;51.858;4.398;2024-02-21T04:06:32;9.90;99.90
40454;DHT22;26160;51.858;4.398;2024-02-21T04:08:59;10.00;99.90
40454;DHT22;26160;51.858;4.398;2024-02-21T04:11:25;10.00;99.90
40454;DHT22;26160;51.858;4.398;2024-02-21T04:13:51;9.90;99.90
40454;DHT22;26160;51.858;4.398;2024-02-21T04:16:17;9.90;99.90
40454;DHT22;26160;51.858;4.398;2024-02-21T04:18:43;9.90;99.90
40454;DHT22;26160;51.858;4.398;2024-02-21T04:21:11;9.90;99.90
40454;DHT22;26160;51.858;4.398;2024-02-21T04:23:39;9.90;99.90
40454;DHT22;26160;51.858;4.398;2024-02-21T04:26:06;9.90;99.90
40454;DHT22;26160;51.858;4.398;2024-02-21T04:28:32;9.90;99.90
40454;DHT22;26160;51.858;4.398;2024-02-21T04:30:58;9.90;99.90
40454;DHT22;26160;51.858;4.398;2024-02-21T04:33:24;9.90;99.90
40454;DHT22;26160;51.858;4.398;2024-02-21T04:35:50;9.90;99.90
40454;DHT22;26160;51.858;4.398;2024-02-21T04:38:17;9.90;99.90
40454;DHT22;26160;51.858;4.398;2024-02-21T04:40:43;9.90;99.90
40454;DHT22;26160;51.858;4.398;2024-02-21T04:43:10;9.90;99.90
40454;DHT22;26160;51.858;4.398;2024-02-21T04:45:36;9.80;99.90
40454;DHT22;26160;51.858;4.398;2024-02-21T04:48:02;9.80;99.90
40454;DHT22;26160;51.858;4.398;2024-02-21T04:50:29;9.80;99.90
40454;DHT22;26160;51.858;4.398;2024-02-21T04:52:55;9.80;99.90
40454;DHT22;26160;51.858;4.398;2024-02-21T04:55:21;9.80;99.90
40454;DHT22;26160;51.858;4.398;2024-02-21T04:57:47;9.80;99.90
40454;DHT22;26160;51.858;4.398;2024-02-21T05:00:13;9.80;99.90
40454;DHT22;26160;51.858;4.398;2024-02-21T05:02:40;9.80;99.90
40454;DHT22;26160;51.858;4.398;2024-02-21T05:05:06;9.80;99.90
40454;DHT22;26160;51.858;4.398;2024-02-21T05:07:34;9.80;99.90
40454;DHT22;26160;51.858;4.398;2024-02-21T05:10:01;9.80;99.90
40454;DHT22;26160;51.858;4.398;2024-02-21T05:12:27;9.70;99.90
40454;DHT22;26160;51.858;4.398;2024-02-21T05:14:53;9.70;99.90
40454;DHT22;26160;51.858;4.398;2024-02-21T05:17:19;9.70;99.90
40454;DHT22;26160;51.858;4.398;2024-02-21T05:19:45;9.70;99.90
40454;DHT22;26160;51.858;4.398;2024-02-21T05:22:11;9.70;99.90
40454;DHT22;26160;51.858;4.398;2024-02-21T05:24:39;9.70;99.90
40454;DHT22;26160;51.858;4.398;2024-02-21T05:27:05;9.70;99.90
40454;DHT22;26160;51.858;4.398;2024-02-21T05:29:33;9.60;99.90
40454;DHT22;26160;51.858;4.398;2024-02-21T05:32:00;9.70;99.90
40454;DHT22;26160;51.858;4.398;2024-02-21T05:34:26;9.70;99.90
40454;DHT22;26160;51.858;4.398;2024-02-21T05:36:52;9.70;99.90
40454;DHT22;26160;51.858;4.398;2024-02-21T05:39:19;9.70;99.90
40454;DHT22;26160;51.858;4.398;2024-02-21T05:41:45;9.70;99.90
40454;DHT22;26160;51.858;4.398;2024-02-21T05:44:12;9.70;99.90
40454;DHT22;26160;51.858;4.398;2024-02-21T05:46:38;9.70;99.90
40454;DHT22;26160;51.858;4.398;2024-02-21T05:49:04;9.70;99.90
40454;DHT22;26160;51.858;4.398;2024-02-21T05:51:34;9.70;99.90
40454;DHT22;26160;51.858;4.398;2024-02-21T05:54:01;9.70;99.90
40454;DHT22;26160;51.858;4.398;2024-02-21T05:56:27;9.70;99.90
40454;DHT22;26160;51.858;4.398;2024-02-21T05:58:54;9.60;99.90
40454;DHT22;26160;51.858;4.398;2024-02-21T06:01:20;9.60;99.90
40454;DHT22;26160;51.858;4.398;2024-02-21T06:03:50;9.60;99.90
40454;DHT22;26160;51.858;4.398;2024-02-21T06:06:16;9.60;99.90
40454;DHT22;26160;51.858;4.398;2024-02-21T06:08:43;9.50;99.90
40454;DHT22;26160;51.858;4.398;2024-02-21T06:11:09;9.60;99.90
40454;DHT22;26160;51.858;4.398;2024-02-21T06:13:38;9.50;99.90
40454;DHT22;26160;51.858;4.398;2024-02-21T06:16:08;9.50;99.90
40454;DHT22;26160;51.858;4.398;2024-02-21T06:18:35;9.50;99.90
40454;DHT22;26160;51.858;4.398;2024-02-21T06:21:03;9.50;99.90
40454;DHT22;26160;51.858;4.398;2024-02-21T06:23:32;9.50;99.90
40454;DHT22;26160;51.858;4.398;2024-02-21T06:25:58;9.50;99.90
40454;DHT22;26160;51.858;4.398;2024-02-21T06:28:24;9.50;99.90
40454;DHT22;26160;51.858;4.398;2024-02-21T06:30:51;9.40;99.90
40454;DHT22;26160;51.858;4.398;2024-02-21T06:33:17;9.40;99.90
40454;DHT22;26160;51.858;4.398;2024-02-21T06:35:43;9.40;99.90
40454;DHT22;26160;51.858;4.398;2024-02-21T06:38:12;9.40;99.90
40454;DHT22;26160;51.858;4.398;2024-02-21T06:40:41;9.40;99.90
40454;DHT22;26160;51.858;4.398;2024-02-21T06:43:07;9.40;99.90
40454;DHT22;26160;51.858;4.398;2024-02-21T06:45:33;9.40;99.90
40454;DHT22;26160;51.858;4.398;2024-02-21T06:47:59;9.30;99.90
40454;DHT22;26160;51.858;4.398;2024-02-21T06:50:26;9.40;99.90
40454;DHT22;26160;51.858;4.398;2024-02-21T06:52:52;9.30;99.90
40454;DHT22;26160;51.858;4.398;2024-02-21T06:55:18;9.30;99.90
40454;DHT22;26160;51.858;4.398;2024-02-21T06:57:44;9.30;99.90
40454;DHT22;26160;51.858;4.398;2024-02-21T07:00:11;9.30;99.90
40454;DHT22;26160;51.858;4.398;2024-02-21T07:02:37;9.30;99.90
40454;DHT22;26160;51.858;4.398;2024-02-21T07:05:04;9.40;99.90
40454;DHT22;26160;51.858;4.398;2024-02-21T07:07:31;9.40;99.90
40454;DHT22;26160;51.858;4.398;2024-02-21T07:09:57;9.40;99.90
40454;DHT22;26160;51.858;4.398;2024-02-21T07:12:23;9.30;99.90
40454;DHT22;26160;51.858;4.398;2024-02-21T07:14:49;9.30;99.90
40454;DHT22;26160;51.858;4.398;2024-02-21T07:17:15;9.20;99.90
40454;DHT22;26160;51.858;4.398;2024-02-21T07:19:41;9.20;99.90
40454;DHT22;26160;51.858;4.398;2024-02-21T07:22:10;9.20;99.90
40454;DHT22;26160;51.858;4.398;2024-02-21T07:24:36;9.20;99.90
40454;DHT22;26160;51.858;4.398;2024-02-21T07:27:03;9.20;99.90
40454;DHT22;26160;51.858;4.398;2024-02-21T07:29:30;9.20;99.90
40454;DHT22;26160;51.858;4.398;2024-02-21T07:31:56;9.20;99.90
40454;DHT22;26160;51.858;4.398;2024-02-21T07:34:22;9.20;99.90
40454;DHT22;26160;51.858;4.398;2024-02-21T07:36:49;9.10;99.90
40454;DHT22;26160;51.858;4.398;2024-02-21T07:39:15;9.10;99.90
40454;DHT22;26160;51.858;4.398;2024-02-21T07:41:41;9.10;99.90
40454;DHT22;26160;51.858;4.398;2024-02-21T07:44:09;9.10;99.90
40454;DHT22;26160;51.858;4.398;2024-02-21T07:46:35;9.10;99.90
40454;DHT22;26160;51.858;4.398;2024-02-21T07:49:01;9.10;99.90
40454;DHT22;26160;51.858;4.398;2024-02-21T07:51:28;9.10;99.90
40454;DHT22;26160;51.858;4.398;2024-02-21T07:53:54;9.10;99.90
40454;DHT22;26160;51.858;4.398;2024-02-21T07:56:21;9.20;99.90
40454;DHT22;26160;51.858;4.398;2024-02-21T07:58:48;9.20;99.90
40454;DHT22;26160;51.858;4.398;2024-02-21T08:01:20;9.20;99.90
40454;DHT22;26160;51.858;4.398;2024-02-21T08:03:47;9.20;99.90
40454;DHT22;26160;51.858;4.398;2024-02-21T08:06:13;9.20;99.90
40454;DHT22;26160;51.858;4.398;2024-02-21T08:08:40;9.20;99.90
40454;DHT22;26160;51.858;4.398;2024-02-21T08:11:06;9.20;99.90
40454;DHT22;26160;51.858;4.398;2024-02-21T08:13:32;9.30;99.90
40454;DHT22;26160;51.858;4.398;2024-02-21T08:15:58;9.30;99.90
40454;DHT22;26160;51.858;4.398;2024-02-21T08:18:25;9.30;99.90
40454;DHT22;26160;51.858;4.398;2024-02-21T08:20:51;9.30;99.90
40454;DHT22;26160;51.858;4.398;2024-02-21T08:23:18;9.30;99.90
40454;DHT22;26160;51.858;4.398;2024-02-21T08:25:45;9.30;99.90
40454;DHT22;26160;51.858;4.398;2024-02-21T08:28:11;9.30;99.90
40454;DHT22;26160;51.858;4.398;2024-02-21T08:30:39;9.30;99.90
40454;DHT22;26160;51.858;4.398;2024-02-21T08:33:05;9.30;99.90
40454;DHT22;26160;51.858;4.398;2024-02-21T08:35:31;9.30;99.90
40454;DHT22;26160;51.858;4.398;2024-02-21T08:37:57;9.40;99.90
40454;DHT22;26160;51.858;4.398;2024-02-21T08:40:23;9.40;99.90
40454;DHT22;26160;51.858;4.398;2024-02-21T08:42:50;9.40;99.90
40454;DHT22;26160;51.858;4.398;2024-02-21T08:45:16;9.40;99.90
40454;DHT22;26160;51.858;4.398;2024-02-21T08:47:42;9.40;99.90
40454;DHT22;26160;51.858;4.398;2024-02-21T08:50:09;9.40;99.90
40454;DHT22;26160;51.858;4.398;2024-02-21T08:52:37;9.40;99.90
40454;DHT22;26160;51.858;4.398;2024-02-21T08:55:04;9.50;99.90
40454;DHT22;26160;51.858;4.398;2024-02-21T08:57:30;9.50;99.90
40454;DHT22;26160;51.858;4.398;2024-02-21T09:00:05;9.50;99.90
40454;DHT22;26160;51.858;4.398;2024-02-21T09:02:39;9.50;99.90
40454;DHT22;26160;51.858;4.398;2024-02-21T09:05:06;9.60;99.90
40454;DHT22;26160;51.858;4.398;2024-02-21T09:07:32;9.50;99.90
40454;DHT22;26160;51.858;4.398;2024-02-21T09:09:58;9.60;99.90
40454;DHT22;26160;51.858;4.398;2024-02-21T09:12:24;9.60;99.90
40454;DHT22;26160;51.858;4.398;2024-02-21T09:14:51;9.70;99.90
40454;DHT22;26160;51.858;4.398;2024-02-21T09:17:17;9.70;99.90
40454;DHT22;26160;51.858;4.398;2024-02-21T09:19:44;9.70;99.90
40454;DHT22;26160;51.858;4.398;2024-02-21T09:22:10;9.70;99.90
40454;DHT22;26160;51.858;4.398;2024-02-21T09:24:36;9.70;99.90
40454;DHT22;26160;51.858;4.398;2024-02-21T09:27:02;9.70;99.90
40454;DHT22;26160;51.858;4.398;2024-02-21T09:29:29;9.80;99.90
40454;DHT22;26160;51.858;4.398;2024-02-21T09:31:55;9.80;99.90
40454;DHT22;26160;51.858;4.398;2024-02-21T09:34:21;9.90;99.90
40454;DHT22;26160;51.858;4.398;2024-02-21T09:36:47;9.90;99.90
40454;DHT22;26160;51.858;4.398;2024-02-21T09:39:13;10.00;99.90
40454;DHT22;26160;51.858;4.398;2024-02-21T09:41:47;10.00;99.90
40454;DHT22;26160;51.858;4.398;2024-02-21T09:44:16;10.00;99.90
40454;DHT22;26160;51.858;4.398;2024-02-21T09:47:01;10.00;99.90
40454;DHT22;26160;51.858;4.398;2024-02-21T09:49:31;10.10;99.90
40454;DHT22;26160;51.858;4.398;2024-02-21T09:52:07;10.10;99.90
40454;DHT22;26160;51.858;4.398;2024-02-21T09:54:34;10.10;99.90
40454;DHT22;26160;51.858;4.398;2024-02-21T09:57:01;10.10;99.90
40454;DHT22;26160;51.858;4.398;2024-02-21T09:59:32;10.10;99.90
40454;DHT22;26160;51.858;4.398;2024-02-21T10:01:59;10.10;99.90
40454;DHT22;26160;51.858;4.398;2024-02-21T10:04:29;10.00;99.90
40454;DHT22;26160;51.858;4.398;2024-02-21T10:06:55;10.10;99.90
40454;DHT22;26160;51.858;4.398;2024-02-21T10:09:26;10.10;99.90
40454;DHT22;26160;51.858;4.398;2024-02-21T10:11:56;10.10;99.90
40454;DHT22;26160;51.858;4.398;2024-02-21T10:14:22;10.10;99.90
40454;DHT22;26160;51.858;4.398;2024-02-21T10:16:56;10.10;99.90
40454;DHT22;26160;51.858;4.398;2024-02-21T10:19:24;10.20;99.90
40454;DHT22;26160;51.858;4.398;2024-02-21T10:22:05;10.30;99.90
40454;DHT22;26160;51.858;4.398;2024-02-21T10:24:34;10.20;99.90
40454;DHT22;26160;51.858;4.398;2024-02-21T10:27:02;10.20;99.90
40454;DHT22;26160;51.858;4.398;2024-02-21T10:29:32;10.30;99.90
40454;DHT22;26160;51.858;4.398;2024-02-21T10:32:12;10.30;99.90
40454;DHT22;26160;51.858;4.398;2024-02-21T10:34:40;10.20;99.90
40454;DHT22;26160;51.858;4.398;2024-02-21T10:37:10;10.20;99.90
40454;DHT22;26160;51.858;4.398;2024-02-21T10:39:41;10.20;99.90
40454;DHT22;26160;51.858;4.398;2024-02-21T10:42:11;10.20;99.90
40454;DHT22;26160;51.858;4.398;2024-02-21T10:44:38;10.20;99.90
40454;DHT22;26160;51.858;4.398;2024-02-21T10:47:10;10.20;99.90
40454;DHT22;26160;51.858;4.398;2024-02-21T10:49:40;10.20;99.90
40454;DHT22;26160;51.858;4.398;2024-02-21T10:53:00;10.20;99.90
40454;DHT22;26160;51.858;4.398;2024-02-21T10:55:09;10.30;99.90
40454;DHT22;26160;51.858;4.398;2024-02-21T10:57:37;10.30;99.90
40454;DHT22;26160;51.858;4.398;2024-02-21T11:00:04;10.30;99.90
40454;DHT22;26160;51.858;4.398;2024-02-21T11:02:34;10.40;99.90
40454;DHT22;26160;51.858;4.398;2024-02-21T11:05:02;10.50;97.50
40454;DHT22;26160;51.858;4.398;2024-02-21T11:07:31;10.50;98.80
40454;DHT22;26160;51.858;4.398;2024-02-21T11:09:58;10.50;96.70
40454;DHT22;26160;51.858;4.398;2024-02-21T11:12:25;10.50;96.30
40454;DHT22;26160;51.858;4.398;2024-02-21T11:15:04;10.50;97.20
40454;DHT22;26160;51.858;4.398;2024-02-21T11:17:31;10.50;95.80
40454;DHT22;26160;51.858;4.398;2024-02-21T11:19:57;10.60;93.20
40454;DHT22;26160;51.858;4.398;2024-02-21T11:22:24;10.60;90.80
40454;DHT22;26160;51.858;4.398;2024-02-21T11:24:55;10.60;85.10
40454;DHT22;26160;51.858;4.398;2024-02-21T11:27:22;10.70;83.10
40454;DHT22;26160;51.858;4.398;2024-02-21T11:29:57;10.70;77.90
40454;DHT22;26160;51.858;4.398;2024-02-21T11:32:25;10.70;78.00
40454;DHT22;26160;51.858;4.398;2024-02-21T11:35:02;10.70;75.50
40454;DHT22;26160;51.858;4.398;2024-02-21T11:37:31;10.80;71.60
40454;DHT22;26160;51.858;4.398;2024-02-21T11:40:03;10.80;62.70
40454;DHT22;26160;51.858;4.398;2024-02-21T11:42:30;10.70;61.70
40454;DHT22;26160;51.858;4.398;2024-02-21T11:44:57;10.80;64.20
40454;DHT22;26160;51.858;4.398;2024-02-21T11:47:23;10.80;62.80
40454;DHT22;26160;51.858;4.398;2024-02-21T11:49:50;10.80;65.10
40454;DHT22;26160;51.858;4.398;2024-02-21T11:52:22;10.90;65.30
40454;DHT22;26160;51.858;4.398;2024-02-21T11:54:51;10.90;55.20
40454;DHT22;26160;51.858;4.398;2024-02-21T11:57:18;10.80;63.30
40454;DHT22;26160;51.858;4.398;2024-02-21T11:59:45;10.70;65.40
40454;DHT22;26160;51.858;4.398;2024-02-21T12:02:13;10.70;69.90
40454;DHT22;26160;51.858;4.398;2024-02-21T12:04:39;10.70;78.00
40454;DHT22;26160;51.858;4.398;2024-02-21T12:07:06;10.70;76.40
40454;DHT22;26160;51.858;4.398;2024-02-21T12:09:34;10.70;80.50
40454;DHT22;26160;51.858;4.398;2024-02-21T12:12:02;10.60;84.20
40454;DHT22;26160;51.858;4.398;2024-02-21T12:14:33;10.60;80.60
40454;DHT22;26160;51.858;4.398;2024-02-21T12:17:00;10.50;78.60
40454;DHT22;26160;51.858;4.398;2024-02-21T12:19:30;10.50;80.20
40454;DHT22;26160;51.858;4.398;2024-02-21T12:22:00;10.50;82.60
40454;DHT22;26160;51.858;4.398;2024-02-21T12:24:28;10.40;84.70
40454;DHT22;26160;51.858;4.398;2024-02-21T12:26:55;10.40;84.50
40454;DHT22;26160;51.858;4.398;2024-02-21T12:29:23;10.50;85.60
40454;DHT22;26160;51.858;4.398;2024-02-21T12:31:53;10.40;87.10
40454;DHT22;26160;51.858;4.398;2024-02-21T12:34:23;10.40;86.30
40454;DHT22;26160;51.858;4.398;2024-02-21T12:36:50;10.40;81.30
40454;DHT22;26160;51.858;4.398;2024-02-21T12:39:26;10.50;86.50
40454;DHT22;26160;51.858;4.398;2024-02-21T12:41:54;10.40;86.00
40454;DHT22;26160;51.858;4.398;2024-02-21T12:44:22;10.40;83.80
40454;DHT22;26160;51.858;4.398;2024-02-21T12:46:49;10.50;84.10
40454;DHT22;26160;51.858;4.398;2024-02-21T12:49:18;10.50;83.10
40454;DHT22;26160;51.858;4.398;2024-02-21T12:51:44;10.50;81.60
40454;DHT22;26160;51.858;4.398;2024-02-21T12:54:12;10.40;82.30
40454;DHT22;26160;51.858;4.398;2024-02-21T12:56:38;10.40;78.20
40454;DHT22;26160;51.858;4.398;2024-02-21T12:59:06;10.40;81.90
40454;DHT22;26160;51.858;4.398;2024-02-21T13:01:36;10.40;86.80
40454;DHT22;26160;51.858;4.398;2024-02-21T13:04:02;10.40;90.70
40454;DHT22;26160;51.858;4.398;2024-02-21T13:06:29;10.30;93.00
40454;DHT22;26160;51.858;4.398;2024-02-21T13:08:55;10.30;93.00
40454;DHT22;26160;51.858;4.398;2024-02-21T13:11:21;10.40;91.60
40454;DHT22;26160;51.858;4.398;2024-02-21T13:13:47;10.40;95.20
40454;DHT22;26160;51.858;4.398;2024-02-21T13:16:14;10.40;96.70
40454;DHT22;26160;51.858;4.398;2024-02-21T13:18:40;10.40;93.30
40454;DHT22;26160;51.858;4.398;2024-02-21T13:21:09;10.40;92.90
40454;DHT22;26160;51.858;4.398;2024-02-21T13:23:35;10.40;94.40
40454;DHT22;26160;51.858;4.398;2024-02-21T13:26:01;10.40;94.40
40454;DHT22;26160;51.858;4.398;2024-02-21T13:28:27;10.30;91.60
40454;DHT22;26160;51.858;4.398;2024-02-21T13:30:53;10.30;92.20
40454;DHT22;26160;51.858;4.398;2024-02-21T13:33:20;10.30;92.20
40454;DHT22;26160;51.858;4.398;2024-02-21T13:35:46;10.30;91.90
40454;DHT22;26160;51.858;4.398;2024-02-21T13:38:12;10.40;89.20
40454;DHT22;26160;51.858;4.398;2024-02-21T13:40:39;10.30;93.20
40454;DHT22;26160;51.858;4.398;2024-02-21T13:43:05;10.30;94.80
40454;DHT22;26160;51.858;4.398;2024-02-21T13:45:31;10.30;96.90
40454;DHT22;26160;51.858;4.398;2024-02-21T13:47:58;10.30;99.90
40454;DHT22;26160;51.858;4.398;2024-02-21T13:50:29;10.20;99.90
40454;DHT22;26160;51.858;4.398;2024-02-21T13:52:55;10.20;98.50
40454;DHT22;26160;51.858;4.398;2024-02-21T13:55:22;10.20;99.90
40454;DHT22;26160;51.858;4.398;2024-02-21T13:57:54;10.10;99.90
40454;DHT22;26160;51.858;4.398;2024-02-21T14:00:20;10.10;99.90
40454;DHT22;26160;51.858;4.398;2024-02-21T14:02:46;10.10;99.90
40454;DHT22;26160;51.858;4.398;2024-02-21T14:05:13;10.00;99.90
40454;DHT22;26160;51.858;4.398;2024-02-21T14:07:40;10.00;99.90
40454;DHT22;26160;51.858;4.398;2024-02-21T14:10:08;10.00;99.90
40454;DHT22;26160;51.858;4.398;2024-02-21T14:12:35;9.90;99.90
40454;DHT22;26160;51.858;4.398;2024-02-21T14:15:01;9.90;99.90
40454;DHT22;26160;51.858;4.398;2024-02-21T14:17:27;9.90;99.90
40454;DHT22;26160;51.858;4.398;2024-02-21T14:19:53;9.80;99.90
40454;DHT22;26160;51.858;4.398;2024-02-21T14:22:20;9.80;99.90
40454;DHT22;26160;51.858;4.398;2024-02-21T14:24:46;9.70;99.90
40454;DHT22;26160;51.858;4.398;2024-02-21T14:27:13;9.70;99.90
40454;DHT22;26160;51.858;4.398;2024-02-21T14:29:39;9.70;99.90
40454;DHT22;26160;51.858;4.398;2024-02-21T14:32:05;9.70;99.90
40454;DHT22;26160;51.858;4.398;2024-02-21T14:34:33;9.70;99.90
40454;DHT22;26160;51.858;4.398;2024-02-21T14:36:59;9.60;99.90
40454;DHT22;26160;51.858;4.398;2024-02-21T14:39:25;9.60;99.90
40454;DHT22;26160;51.858;4.398;2024-02-21T14:41:51;9.60;99.90
40454;DHT22;26160;51.858;4.398;2024-02-21T14:44:17;9.60;99.90
40454;DHT22;26160;51.858;4.398;2024-02-21T14:46:43;9.60;99.90
40454;DHT22;26160;51.858;4.398;2024-02-21T14:49:10;9.60;99.90
40454;DHT22;26160;51.858;4.398;2024-02-21T14:51:37;9.60;99.90
40454;DHT22;26160;51.858;4.398;2024-02-21T14:54:03;9.60;99.90
40454;DHT22;26160;51.858;4.398;2024-02-21T14:56:29;9.60;99.90
40454;DHT22;26160;51.858;4.398;2024-02-21T14:58:56;9.60;99.90
40454;DHT22;26160;51.858;4.398;2024-02-21T15:01:22;9.60;99.90
40454;DHT22;26160;51.858;4.398;2024-02-21T15:03:49;9.60;99.90
40454;DHT22;26160;51.858;4.398;2024-02-21T15:06:15;9.60;99.90
40454;DHT22;26160;51.858;4.398;2024-02-21T15:08:41;9.60;99.90
40454;DHT22;26160;51.858;4.398;2024-02-21T15:11:07;9.60;99.90
40454;DHT22;26160;51.858;4.398;2024-02-21T15:13:33;9.60;99.90
40454;DHT22;26160;51.858;4.398;2024-02-21T15:15:59;9.70;99.90
40454;DHT22;26160;51.858;4.398;2024-02-21T15:18:26;9.70;99.90
40454;DHT22;26160;51.858;4.398;2024-02-21T15:20:52;9.70;99.90
40454;DHT22;26160;51.858;4.398;2024-02-21T15:23:19;9.70;99.90
40454;DHT22;26160;51.858;4.398;2024-02-21T15:25:46;9.70;99.90
40454;DHT22;26160;51.858;4.398;2024-02-21T15:28:12;9.70;99.90
40454;DHT22;26160;51.858;4.398;2024-02-21T15:30:38;9.70;99.90
40454;DHT22;26160;51.858;4.398;2024-02-21T15:33:04;9.70;99.90
40454;DHT22;26160;51.858;4.398;2024-02-21T15:35:31;9.70;99.90
40454;DHT22;26160;51.858;4.398;2024-02-21T15:37:57;9.70;99.90
40454;DHT22;26160;51.858;4.398;2024-02-21T15:40:24;9.70;99.90
40454;DHT22;26160;51.858;4.398;2024-02-21T15:42:50;9.70;99.90